Time;durP1;ratioP1;P1;durP2;ratioP2;P2;SDS_P1;SDS_P2;PMS_P1;PMS_P2;Temp;Humidity;BMP_temperature;BMP_pressure;BME280_temperature;BME280_humidity;BME280_pressure;Samples;Min_cycle;Max_cycle;Signal;HPM_P1;HPM_P2
2020/12/28 00:00:17;;;;;;;4.05;2.03;;;4.90;99.90;;;;;;5050014;28;20048;-59
2020/12/28 00:03:22;;;;;;;5.32;1.98;;;5.00;99.90;;;;;;5051817;28;20029;-57
2020/12/28 00:06:26;;;;;;;2.50;1.42;;;4.90;99.90;;;;;;5053186;28;20068;-55
2020/12/28 00:09:30;;;;;;;5.80;2.15;;;5.10;99.90;;;;;;5050270;28;20041;-59
2020/12/28 00:12:46;;;;;;;7.32;2.90;;;5.10;99.90;;;;;;5050011;28;20041;-58
2020/12/28 00:15:51;;;;;;;4.10;1.75;;;5.20;99.90;;;;;;5049512;28;20040;-59
2020/12/28 00:18:55;;;;;;;5.43;2.30;;;5.20;99.90;;;;;;5050038;28;20029;-59
2020/12/28 00:21:59;;;;;;;5.00;2.08;;;5.30;99.90;;;;;;5049159;28;20037;-57
2020/12/28 00:25:04;;;;;;;10.65;3.42;;;5.40;99.90;;;;;;5049541;28;20033;-55
2020/12/28 00:28:08;;;;;;;4.75;2.17;;;5.40;99.90;;;;;;5049660;28;20048;-58
2020/12/28 00:31:12;;;;;;;4.63;1.73;;;5.40;99.90;;;;;;5049703;28;20408;-58
2020/12/28 00:34:18;;;;;;;3.95;2.08;;;5.30;99.90;;;;;;5062713;28;20491;-58
2020/12/28 00:37:23;;;;;;;4.20;1.70;;;5.30;99.90;;;;;;5049579;28;20037;-58
2020/12/28 00:40:27;;;;;;;3.78;2.42;;;5.40;99.90;;;;;;5048919;28;20044;-58
2020/12/28 00:43:31;;;;;;;5.43;1.80;;;5.30;99.90;;;;;;5049062;28;20041;-55
2020/12/28 00:46:35;;;;;;;3.95;1.83;;;5.30;99.90;;;;;;5049597;28;20041;-56
2020/12/28 00:49:39;;;;;;;4.25;2.10;;;5.40;99.90;;;;;;5073584;28;20045;-55
2020/12/28 00:52:43;;;;;;;5.28;2.30;;;5.30;99.90;;;;;;5073869;28;20033;-58
2020/12/28 00:55:47;;;;;;;4.30;2.17;;;5.30;99.90;;;;;;5059598;28;20037;-58
2020/12/28 00:58:51;;;;;;;4.28;1.67;;;5.40;99.90;;;;;;5049200;28;20372;-59
2020/12/28 01:01:58;;;;;;;3.33;2.00;;;5.40;99.90;;;;;;5074098;28;20397;-58
2020/12/28 01:05:04;;;;;;;3.58;1.63;;;5.40;99.90;;;;;;5058861;28;20392;-56
2020/12/28 01:08:14;;;;;;;3.75;1.65;;;5.60;99.90;;;;;;5059863;28;20040;-57
2020/12/28 01:11:21;;;;;;;2.67;1.77;;;5.70;99.90;;;;;;5053013;28;20040;-59
2020/12/28 01:14:28;;;;;;;3.38;1.83;;;5.70;99.90;;;;;;5063464;28;20040;-60
2020/12/28 01:17:34;;;;;;;6.90;2.10;;;5.80;99.90;;;;;;5074722;28;20041;-59
2020/12/28 01:20:51;;;;;;;2.10;1.48;;;6.10;99.90;;;;;;5075616;28;20045;-58
2020/12/28 01:23:56;;;;;;;4.88;1.42;;;6.20;99.90;;;;;;5067106;28;20041;-59
2020/12/28 01:27:02;;;;;;;7.72;1.75;;;6.20;99.90;;;;;;5052492;28;20041;-58
2020/12/28 01:30:06;;;;;;;8.80;1.70;;;6.40;99.90;;;;;;5063114;28;20041;-58
2020/12/28 01:33:11;;;;;;;4.53;1.80;;;6.30;99.90;;;;;;5063082;28;20384;-59
2020/12/28 01:36:37;;;;;;;1.83;1.25;;;6.50;99.90;;;;;;5062650;28;20049;-58
2020/12/28 01:39:50;;;;;;;2.33;1.52;;;6.50;99.90;;;;;;5063232;28;20040;-57
2020/12/28 01:42:54;;;;;;;2.83;1.35;;;6.60;99.90;;;;;;5075366;28;20032;-59
2020/12/28 01:46:01;;;;;;;1.98;1.40;;;6.60;99.90;;;;;;5062537;28;20384;-59
2020/12/28 01:49:11;;;;;;;4.20;1.40;;;6.60;99.90;;;;;;5052194;28;20484;-59
2020/12/28 01:52:16;;;;;;;6.30;1.88;;;6.50;99.90;;;;;;5073087;28;20033;-57
2020/12/28 01:55:21;;;;;;;3.13;1.60;;;6.30;99.90;;;;;;5063021;28;20041;-60
2020/12/28 01:58:35;;;;;;;3.17;1.77;;;5.90;99.90;;;;;;5076302;28;20392;-60
2020/12/28 02:01:41;;;;;;;4.20;1.80;;;5.40;99.90;;;;;;5063993;28;20041;-60
2020/12/28 02:04:47;;;;;;;3.33;1.65;;;5.30;99.90;;;;;;5051507;28;20040;-59
2020/12/28 02:07:55;;;;;;;4.28;1.40;;;5.20;99.90;;;;;;5062362;28;20045;-59
2020/12/28 02:11:01;;;;;;;4.80;1.88;;;5.20;99.90;;;;;;5071432;28;20041;-59
2020/12/28 02:14:06;;;;;;;8.45;2.13;;;5.20;99.90;;;;;;5074341;28;20041;-58
2020/12/28 02:17:20;;;;;;;3.50;1.70;;;5.10;99.90;;;;;;5074891;28;20415;-54
2020/12/28 02:20:38;;;;;;;3.90;1.85;;;5.10;99.90;;;;;;5076020;28;20040;-59
2020/12/28 02:23:43;;;;;;;3.75;2.42;;;5.10;99.90;;;;;;5061736;28;20041;-60
2020/12/28 02:26:48;;;;;;;3.33;1.98;;;5.10;99.90;;;;;;5061132;28;20037;-59
2020/12/28 02:29:52;;;;;;;3.85;2.22;;;5.10;99.90;;;;;;5050910;28;20436;-58
2020/12/28 02:32:57;;;;;;;5.57;2.55;;;4.90;99.90;;;;;;5061508;28;20498;-58
2020/12/28 02:36:11;;;;;;;4.43;2.20;;;4.70;99.90;;;;;;5073864;28;20032;-59
2020/12/28 02:39:15;;;;;;;4.13;2.40;;;4.60;99.90;;;;;;5061846;28;20049;-59
2020/12/28 02:42:19;;;;;;;3.58;2.40;;;4.40;99.90;;;;;;5061522;28;20495;-57
2020/12/28 02:45:42;;;;;;;5.90;2.05;;;4.40;99.90;;;;;;5059511;28;20270;-58
2020/12/28 02:49:05;;;;;;;4.07;1.90;;;4.50;99.90;;;;;;5054399;28;20036;-58
2020/12/28 02:52:28;;;;;;;5.10;2.15;;;4.50;99.90;;;;;;5065700;28;20395;-58
2020/12/28 02:55:50;;;;;;;3.65;1.92;;;4.90;99.90;;;;;;5058432;28;20037;-57
2020/12/28 02:59:14;;;;;;;11.45;2.60;;;5.00;99.90;;;;;;5050881;28;20033;-56
2020/12/28 03:02:37;;;;;;;3.63;2.25;;;5.20;99.90;;;;;;5050740;28;20033;-58
2020/12/28 03:06:04;;;;;;;6.75;2.55;;;5.10;99.90;;;;;;5056920;28;20044;-55
2020/12/28 03:09:27;;;;;;;5.63;2.25;;;5.00;99.90;;;;;;5050188;28;20044;-58
2020/12/28 03:12:50;;;;;;;5.93;2.72;;;5.20;99.90;;;;;;5050825;28;20049;-58
2020/12/28 03:16:13;;;;;;;6.40;3.10;;;5.20;99.90;;;;;;5050291;28;20056;-58
2020/12/28 03:19:36;;;;;;;5.32;3.50;;;5.00;99.90;;;;;;5050047;28;20037;-56
2020/12/28 03:22:59;;;;;;;8.55;4.50;;;5.00;99.90;;;;;;5051662;28;20049;-60
2020/12/28 03:26:21;;;;;;;10.23;4.07;;;4.90;99.90;;;;;;5049775;28;20040;-58
2020/12/28 03:29:44;;;;;;;9.00;3.67;;;4.90;99.90;;;;;;5049810;28;20042;-56
2020/12/28 03:33:07;;;;;;;10.35;4.20;;;4.80;99.90;;;;;;5049199;28;20049;-58
2020/12/28 03:36:38;;;;;;;7.25;4.50;;;4.80;99.90;;;;;;5054216;28;20509;-59
2020/12/28 03:40:00;;;;;;;6.47;4.10;;;4.90;99.90;;;;;;5049874;28;20044;-57
2020/12/28 03:43:23;;;;;;;6.97;3.88;;;4.90;99.90;;;;;;5050102;28;20045;-58
2020/12/28 03:46:56;;;;;;;8.73;4.43;;;5.10;99.90;;;;;;5054353;28;20041;-60
2020/12/28 03:50:18;;;;;;;11.57;5.43;;;5.10;99.90;;;;;;5048513;28;20033;-59
2020/12/28 03:53:41;;;;;;;12.85;5.28;;;4.90;99.90;;;;;;5058518;28;20036;-59
2020/12/28 03:57:04;;;;;;;14.25;6.18;;;4.80;99.90;;;;;;5065221;28;20501;-60
2020/12/28 04:00:28;;;;;;;9.65;5.53;;;4.70;99.90;;;;;;5048730;28;20044;-58
2020/12/28 04:04:10;;;;;;;10.68;5.43;;;4.70;99.90;;;;;;5066474;28;20045;-57
2020/12/28 04:07:33;;;;;;;6.90;4.50;;;4.80;99.90;;;;;;5065466;28;20048;-60
2020/12/28 04:11:06;;;;;;;6.50;3.75;;;5.00;99.90;;;;;;5081273;28;20033;-55
2020/12/28 04:14:32;;;;;;;3.67;2.60;;;5.30;99.90;;;;;;5060122;28;20495;-57
2020/12/28 04:17:36;;;;;;;10.48;3.85;;;5.50;99.90;;;;;;5048871;28;20037;-59
2020/12/28 04:20:40;;;;;;;6.18;3.17;;;5.60;99.90;;;;;;5049327;28;20041;-56
2020/12/28 04:23:44;;;;;;;4.90;3.13;;;5.70;99.90;;;;;;5061204;28;20044;-60
2020/12/28 04:26:48;;;;;;;7.38;2.90;;;5.70;99.90;;;;;;5053675;28;20095;-57
2020/12/28 04:29:53;;;;;;;9.57;3.58;;;5.80;99.90;;;;;;5059604;28;20041;-59
2020/12/28 04:32:56;;;;;;;8.00;3.40;;;5.80;99.90;;;;;;5049220;28;20045;-59
2020/12/28 04:36:01;;;;;;;13.75;4.55;;;5.90;99.90;;;;;;5049127;28;20518;-58
2020/12/28 04:39:05;;;;;;;7.05;3.83;;;5.70;99.90;;;;;;5061003;28;20048;-55
2020/12/28 04:42:10;;;;;;;7.97;4.50;;;5.70;99.90;;;;;;5059263;28;20029;-58
2020/12/28 04:45:14;;;;;;;7.03;3.92;;;5.70;99.90;;;;;;5050871;28;20044;-59
2020/12/28 04:48:20;;;;;;;8.05;3.00;;;5.80;99.90;;;;;;5052523;28;20040;-55
2020/12/28 04:51:25;;;;;;;5.53;3.03;;;5.90;99.90;;;;;;5062810;28;20025;-59
2020/12/28 04:54:29;;;;;;;6.43;2.60;;;6.10;99.90;;;;;;5064344;28;20037;-55
2020/12/28 04:57:33;;;;;;;5.85;3.42;;;6.20;99.90;;;;;;5052411;28;20032;-58
2020/12/28 05:00:40;;;;;;;3.88;2.30;;;6.40;99.90;;;;;;5054419;28;20037;-57
2020/12/28 05:03:44;;;;;;;4.95;2.45;;;6.60;99.90;;;;;;5058887;28;20037;-59
2020/12/28 05:07:02;;;;;;;2.97;1.77;;;6.80;99.90;;;;;;5052857;28;20040;-58
2020/12/28 05:10:06;;;;;;;9.65;2.60;;;6.90;99.90;;;;;;5052202;28;20487;-58
2020/12/28 05:13:12;;;;;;;8.35;2.15;;;6.90;99.90;;;;;;5065070;28;20033;-58
2020/12/28 05:16:16;;;;;;;5.38;2.60;;;6.80;99.90;;;;;;5052579;28;20029;-55
2020/12/28 05:19:21;;;;;;;4.75;2.53;;;6.90;99.90;;;;;;5051981;28;20033;-57
2020/12/28 05:22:25;;;;;;;6.78;2.75;;;7.00;99.90;;;;;;5052365;28;20045;-58
2020/12/28 05:25:30;;;;;;;8.88;2.58;;;7.20;99.90;;;;;;5063558;28;20494;-56
2020/12/28 05:28:38;;;;;;;10.77;2.80;;;7.30;99.90;;;;;;5063798;28;20041;-58
2020/12/28 05:31:44;;;;;;;6.47;2.67;;;7.30;99.90;;;;;;5065407;28;20040;-57
2020/12/28 05:34:48;;;;;;;6.90;2.60;;;7.40;99.90;;;;;;5052306;28;20036;-57
2020/12/28 05:37:53;;;;;;;9.95;2.38;;;7.40;99.90;;;;;;5051580;28;20049;-59
2020/12/28 05:41:04;;;;;;;4.32;1.90;;;7.40;99.90;;;;;;5051968;28;20041;-57
2020/12/28 05:44:10;;;;;;;5.53;2.47;;;7.60;99.90;;;;;;5051784;28;20033;-57
2020/12/28 05:47:16;;;;;;;8.07;2.28;;;7.70;99.90;;;;;;5063693;28;20062;-55
2020/12/28 05:50:23;;;;;;;8.68;2.65;;;7.80;99.90;;;;;;5051757;28;20385;-57
2020/12/28 05:53:35;;;;;;;8.32;2.58;;;7.90;99.90;;;;;;5051673;28;20029;-58
2020/12/28 05:56:42;;;;;;;7.32;2.38;;;7.80;99.90;;;;;;5051197;28;20044;-55
2020/12/28 05:59:48;;;;;;;4.50;2.45;;;7.60;99.90;;;;;;5050910;28;20033;-58
2020/12/28 06:02:52;;;;;;;6.97;2.22;;;7.80;99.90;;;;;;5060667;28;20029;-56
2020/12/28 06:05:56;;;;;;;5.60;2.08;;;8.00;99.90;;;;;;5051665;28;20033;-59
2020/12/28 06:09:01;;;;;;;8.55;3.40;;;8.10;99.90;;;;;;5050917;28;20037;-55
2020/12/28 06:12:10;;;;;;;11.73;2.35;;;7.90;99.90;;;;;;5063779;28;20066;-56
2020/12/28 06:15:19;;;;;;;7.15;2.25;;;7.90;99.90;;;;;;5052171;28;20045;-57
2020/12/28 06:18:23;;;;;;;8.02;2.75;;;7.90;99.90;;;;;;5050233;28;20036;-56
2020/12/28 06:21:36;;;;;;;4.88;2.40;;;7.90;99.90;;;;;;5053292;28;20036;-59
2020/12/28 06:24:40;;;;;;;10.00;2.38;;;7.70;99.90;;;;;;5050413;28;20033;-55
2020/12/28 06:27:46;;;;;;;7.25;2.40;;;7.40;99.90;;;;;;5057503;28;20048;-56
2020/12/28 06:30:50;;;;;;;9.00;2.40;;;7.40;99.90;;;;;;5050408;28;20410;-55
2020/12/28 06:33:54;;;;;;;9.68;2.40;;;7.40;99.90;;;;;;5053453;28;20033;-56
2020/12/28 06:37:00;;;;;;;8.32;2.63;;;7.50;99.90;;;;;;5051592;28;20036;-57
2020/12/28 06:40:05;;;;;;;10.25;2.40;;;7.60;99.90;;;;;;5051901;28;20495;-57
2020/12/28 06:43:16;;;;;;;5.07;2.08;;;7.80;99.90;;;;;;5055982;28;20060;-59
2020/12/28 06:46:23;;;;;;;6.13;1.87;;;8.00;99.90;;;;;;5061680;28;20499;-56
2020/12/28 06:49:40;;;;;;;5.10;1.52;;;8.20;99.90;;;;;;5056641;28;20615;-59
2020/12/28 06:52:50;;;;;;;8.50;2.22;;;8.30;99.90;;;;;;5055513;28;20375;-55
2020/12/28 06:56:05;;;;;;;5.25;1.52;;;8.40;99.90;;;;;;5065483;28;20499;-59
2020/12/28 06:59:13;;;;;;;4.13;1.60;;;8.20;99.90;;;;;;5063245;28;20041;-55
2020/12/28 07:02:17;;;;;;;6.55;2.33;;;7.90;99.90;;;;;;5052145;28;20049;-55
2020/12/28 07:05:26;;;;;;;7.13;2.00;;;7.40;99.90;;;;;;5055298;28;20395;-58
2020/12/28 07:08:33;;;;;;;8.52;2.45;;;7.20;99.90;;;;;;5054776;28;20376;-59
2020/12/28 07:11:37;;;;;;;6.15;2.20;;;7.40;99.90;;;;;;5058527;28;20044;-59
2020/12/28 07:14:41;;;;;;;10.13;2.30;;;7.30;99.90;;;;;;5058356;28;20044;-56
2020/12/28 07:17:46;;;;;;;11.48;3.08;;;7.30;99.90;;;;;;5069412;28;20039;-54
2020/12/28 07:21:00;;;;;;;10.55;2.72;;;7.40;99.90;;;;;;5058739;28;20049;-56
2020/12/28 07:24:08;;;;;;;5.85;2.63;;;7.60;99.90;;;;;;5064251;28;20052;-59
2020/12/28 07:27:12;;;;;;;9.27;2.20;;;7.60;99.90;;;;;;5063360;28;20041;-56
2020/12/28 07:30:16;;;;;;;8.95;2.00;;;7.60;99.90;;;;;;5054745;28;20037;-60
2020/12/28 07:33:24;;;;;;;4.72;1.80;;;8.00;99.90;;;;;;5057376;28;20041;-55
2020/12/28 07:36:29;;;;;;;5.22;1.63;;;8.30;99.90;;;;;;5063908;28;20045;-55
2020/12/28 07:39:34;;;;;;;8.27;2.35;;;8.30;99.90;;;;;;5064910;28;20052;-58
2020/12/28 07:42:38;;;;;;;7.07;1.83;;;8.20;99.90;;;;;;5056061;28;20037;-58
2020/12/28 07:45:43;;;;;;;9.70;1.92;;;8.10;99.90;;;;;;5054812;28;20040;-60
2020/12/28 07:48:52;;;;;;;11.77;2.00;;;8.10;99.90;;;;;;5065764;28;20036;-60
2020/12/28 07:52:24;;;;;;;7.05;1.90;;;8.00;99.90;;;;;;5054358;28;20542;-59
2020/12/28 07:55:38;;;;;;;7.13;2.00;;;8.00;99.90;;;;;;5056787;28;20048;-57
2020/12/28 07:58:57;;;;;;;;;;;8.10;99.90;;;;;;5063032;28;20032;-58
2020/12/28 08:02:24;;;;;;;20.48;1.80;;;8.10;99.90;;;;;;5062882;28;19919;-57
2020/12/28 08:05:29;;;;;;;13.82;2.40;;;8.20;99.90;;;;;;5062445;28;20051;-56
2020/12/28 08:08:33;;;;;;;15.75;1.98;;;8.00;99.90;;;;;;5048897;28;20368;-59
2020/12/28 08:11:37;;;;;;;9.02;2.30;;;8.10;99.90;;;;;;5048935;28;20044;-58
2020/12/28 08:14:53;;;;;;;10.05;2.20;;;8.00;99.90;;;;;;5048378;28;20037;-57
2020/12/28 08:18:09;;;;;;;15.82;3.22;;;7.90;99.90;;;;;;5058191;28;20044;-56
2020/12/28 08:21:14;;;;;;;6.30;1.80;;;7.90;99.90;;;;;;5048261;28;20410;-59
2020/12/28 08:24:20;;;;;;;10.93;1.55;;;7.90;99.90;;;;;;5062460;28;20499;-60
2020/12/28 08:27:26;;;;;;;10.95;1.90;;;7.90;99.90;;;;;;5060893;28;20044;-59
2020/12/28 08:30:31;;;;;;;14.32;2.60;;;8.00;99.90;;;;;;5051720;28;20045;-57
2020/12/28 08:33:35;;;;;;;12.25;2.22;;;8.10;99.90;;;;;;5062988;28;20458;-59
2020/12/28 08:36:54;;;;;;;19.05;2.85;;;8.00;99.90;;;;;;5053555;28;20033;-59
2020/12/28 08:39:59;;;;;;;19.05;4.65;;;8.00;99.90;;;;;;5059599;28;20032;-57
2020/12/28 08:43:03;;;;;;;12.10;2.92;;;7.80;99.90;;;;;;5051108;28;20044;-61
2020/12/28 08:46:07;;;;;;;16.30;3.08;;;7.70;99.90;;;;;;5064673;28;20047;-59
2020/12/28 08:49:11;;;;;;;18.73;2.72;;;7.50;99.90;;;;;;5062959;28;20036;-59
2020/12/28 08:52:17;;;;;;;11.45;3.90;;;7.40;99.90;;;;;;5067294;28;20041;-57
2020/12/28 08:55:22;;;;;;;15.40;2.53;;;7.40;99.90;;;;;;5056058;28;20044;-61
2020/12/28 08:58:26;;;;;;;16.52;3.55;;;7.20;99.90;;;;;;5054592;28;20044;-59
2020/12/28 09:01:31;;;;;;;12.75;2.60;;;7.20;99.90;;;;;;5053842;28;20060;-59
2020/12/28 09:04:35;;;;;;;9.90;3.35;;;7.30;99.90;;;;;;5059967;28;20036;-62
2020/12/28 09:07:39;;;;;;;12.07;3.00;;;7.30;99.90;;;;;;5044547;28;20029;-58
2020/12/28 09:10:44;;;;;;;16.55;3.00;;;7.30;99.90;;;;;;5058171;28;20029;-59
2020/12/28 09:13:48;;;;;;;12.52;2.78;;;7.30;99.90;;;;;;5058387;28;20039;-60
2020/12/28 09:16:52;;;;;;;16.90;3.30;;;7.40;99.90;;;;;;5056124;28;20041;-58
2020/12/28 09:19:57;;;;;;;17.60;4.03;;;7.60;99.90;;;;;;5056563;28;20028;-63
2020/12/28 09:23:00;;;;;;;23.52;4.72;;;7.50;99.90;;;;;;5065106;28;20624;-62
2020/12/28 09:26:04;;;;;;;17.15;2.75;;;7.50;99.90;;;;;;5052122;28;20045;-62
2020/12/28 09:29:08;;;;;;;19.58;3.42;;;7.50;99.90;;;;;;5051447;28;20040;-61
2020/12/28 09:32:12;;;;;;;29.50;6.82;;;7.40;99.90;;;;;;5060369;28;20383;-59
2020/12/28 09:35:19;;;;;;;24.15;4.22;;;7.40;99.90;;;;;;5065249;28;20036;-60
2020/12/28 09:38:24;;;;;;;16.90;4.00;;;7.30;99.90;;;;;;5059893;28;20040;-60
2020/12/28 09:41:28;;;;;;;20.83;4.32;;;7.30;99.90;;;;;;5052526;28;20515;-61
2020/12/28 09:44:32;;;;;;;16.98;2.58;;;7.30;99.90;;;;;;5061776;28;20051;-62
2020/12/28 09:47:36;;;;;;;18.25;4.60;;;7.50;99.90;;;;;;5070642;28;20036;-58
2020/12/28 09:50:40;;;;;;;22.58;3.55;;;7.50;99.90;;;;;;5068177;28;20521;-57
2020/12/28 09:53:45;;;;;;;13.98;3.05;;;7.60;99.90;;;;;;5064339;28;20028;-60
2020/12/28 09:56:49;;;;;;;29.17;7.63;;;7.60;99.90;;;;;;5060419;28;20043;-61
2020/12/28 09:59:54;;;;;;;16.98;4.32;;;7.60;99.90;;;;;;5064787;28;20503;-59
2020/12/28 10:02:58;;;;;;;28.25;4.30;;;7.60;99.90;;;;;;5059403;28;20058;-56
2020/12/28 10:06:30;;;;;;;14.77;4.47;;;7.60;99.90;;;;;;5066155;28;20041;-60
2020/12/28 10:09:26;;;;;;;29.67;4.15;;;7.70;99.90;;;;;;5069997;28;20509;-59
2020/12/28 10:12:31;;;;;;;23.27;4.25;;;7.80;99.90;;;;;;5068444;28;20040;-58
2020/12/28 10:15:35;;;;;;;16.50;3.10;;;7.80;99.90;;;;;;5070599;28;20053;-60
2020/12/28 10:18:39;;;;;;;25.10;3.45;;;7.90;99.90;;;;;;5057396;28;20039;-61
2020/12/28 10:21:43;;;;;;;14.57;3.08;;;8.00;99.90;;;;;;5051819;28;20045;-62
2020/12/28 10:24:48;;;;;;;22.20;5.00;;;8.00;99.90;;;;;;5065104;28;20067;-57
2020/12/28 10:27:52;;;;;;;21.33;4.78;;;8.00;99.90;;;;;;5056987;28;20415;-58
2020/12/28 10:30:56;;;;;;;16.90;5.63;;;8.00;99.90;;;;;;5059573;28;20047;-59
2020/12/28 10:34:01;;;;;;;21.23;4.28;;;8.10;99.90;;;;;;5058576;28;20029;-58
2020/12/28 10:37:05;;;;;;;12.95;3.40;;;8.10;99.90;;;;;;5057705;28;20048;-59
2020/12/28 10:40:08;;;;;;;17.40;3.40;;;8.20;99.90;;;;;;5066777;28;20045;-60
2020/12/28 10:43:13;;;;;;;12.98;2.85;;;8.30;99.90;;;;;;5069403;28;20070;-59
2020/12/28 10:46:18;;;;;;;9.52;2.60;;;8.30;99.90;;;;;;5050100;28;20040;-60
2020/12/28 10:49:23;;;;;;;17.60;2.97;;;8.30;99.90;;;;;;5050417;28;20052;-58
2020/12/28 10:52:27;;;;;;;14.02;2.72;;;8.30;99.90;;;;;;5053327;28;20044;-61
2020/12/28 10:55:31;;;;;;;20.83;3.35;;;8.40;99.90;;;;;;5067978;28;20036;-58
2020/12/28 10:58:35;;;;;;;21.40;3.17;;;8.40;99.90;;;;;;5068387;28;20048;-62
2020/12/28 11:01:40;;;;;;;13.82;3.72;;;8.40;99.90;;;;;;5067665;28;20040;-61
2020/12/28 11:04:44;;;;;;;21.67;3.17;;;8.40;99.90;;;;;;5063943;28;20052;-59
2020/12/28 11:07:48;;;;;;;15.48;4.35;;;8.40;99.90;;;;;;5067645;28;20076;-62
2020/12/28 11:10:53;;;;;;;25.27;4.88;;;8.30;99.90;;;;;;5069444;28;20040;-62
2020/12/28 11:13:57;;;;;;;21.70;3.90;;;8.40;99.90;;;;;;5068363;28;20040;-58
2020/12/28 11:31:28;;;;;;;17.33;8.77;;;7.70;99.90;;;;;;5055174;28;20033;-59
2020/12/28 11:34:32;;;;;;;12.13;4.03;;;7.50;99.90;;;;;;5061286;28;20407;-61
2020/12/28 11:47:05;;;;;;;5.78;3.42;;;7.20;99.90;;;;;;5049379;28;20041;-58
2020/12/28 11:50:44;;;;;;;7.50;4.70;;;7.20;99.90;;;;;;5051653;28;20025;-58
2020/12/28 11:53:52;;;;;;;62.63;36.33;;;7.10;99.90;;;;;;5058362;28;20364;-61
2020/12/28 11:56:59;;;;;;;12.00;5.93;;;7.10;99.90;;;;;;5064100;28;20047;-59
2020/12/28 12:09:38;;;;;;;8.50;5.07;;;6.90;99.90;;;;;;5050020;28;20059;-58
2020/12/28 12:12:42;;;;;;;39.33;25.60;;;6.90;99.90;;;;;;5059797;28;20383;-57
2020/12/28 12:15:48;;;;;;;20.65;15.20;;;6.90;99.90;;;;;;5055221;28;20054;-60
2020/12/28 12:18:53;;;;;;;4.43;1.70;;;6.90;99.90;;;;;;5056801;28;20520;-58
2020/12/28 12:21:59;;;;;;;20.92;11.45;;;6.90;99.90;;;;;;5057385;28;20041;-61
2020/12/28 12:25:03;;;;;;;4.88;2.05;;;6.90;99.90;;;;;;5059010;28;20403;-58
2020/12/28 12:28:07;;;;;;;7.38;2.00;;;6.90;99.90;;;;;;5056188;28;20036;-60
2020/12/28 12:31:14;;;;;;;7.55;4.50;;;6.90;99.90;;;;;;5048666;28;20381;-55
2020/12/28 12:34:19;;;;;;;10.05;4.13;;;6.90;99.90;;;;;;5057573;28;20041;-58
2020/12/28 12:37:35;;;;;;;14.45;6.85;;;7.00;99.90;;;;;;5062582;28;20049;-56
2020/12/28 12:40:42;;;;;;;10.18;2.10;;;7.10;99.90;;;;;;5061834;28;20402;-57
2020/12/28 12:43:47;;;;;;;8.00;2.45;;;7.20;99.90;;;;;;5062715;28;20400;-54
2020/12/28 12:46:52;;;;;;;27.38;4.40;;;7.20;99.90;;;;;;5058209;28;20032;-57
2020/12/28 12:49:56;;;;;;;6.75;2.35;;;7.30;99.90;;;;;;5048367;28;20510;-57
2020/12/28 12:53:00;;;;;;;18.73;12.13;;;7.30;99.90;;;;;;5055856;28;20037;-56
2020/12/28 12:56:06;;;;;;;5.25;2.35;;;7.30;99.90;;;;;;5061241;28;20067;-56
2020/12/28 12:59:11;;;;;;;26.23;14.68;;;7.30;99.90;;;;;;5052404;28;20049;-59
2020/12/28 13:02:15;;;;;;;28.02;18.58;;;7.30;99.90;;;;;;5054091;28;20724;-61
2020/12/28 13:05:20;;;;;;;26.23;3.13;;;7.30;99.90;;;;;;5064707;28;20048;-57
2020/12/28 13:08:25;;;;;;;21.60;11.20;;;7.30;99.90;;;;;;5062127;28;20036;-57
2020/12/28 13:11:32;;;;;;;23.33;12.18;;;7.30;99.90;;;;;;5053204;28;20043;-59
2020/12/28 13:14:38;;;;;;;41.03;18.10;;;7.30;99.90;;;;;;5066153;28;20410;-58
2020/12/28 13:17:42;;;;;;;20.08;7.70;;;7.30;99.90;;;;;;5055775;28;20044;-57
2020/12/28 13:20:47;;;;;;;22.52;6.03;;;7.30;99.90;;;;;;5051700;28;20040;-60
2020/12/28 13:23:52;;;;;;;13.02;4.10;;;7.20;99.90;;;;;;5056009;28;20435;-56
2020/12/28 13:26:57;;;;;;;24.25;8.82;;;7.30;99.90;;;;;;5066811;28;20043;-59
2020/12/28 13:30:01;;;;;;;85.93;33.67;;;7.30;99.90;;;;;;5065263;28;20697;-58
2020/12/28 13:33:06;;;;;;;54.60;22.75;;;7.30;99.90;;;;;;5052111;28;20051;-60
2020/12/28 13:36:12;;;;;;;47.97;21.30;;;7.30;99.90;;;;;;5056844;28;20412;-56
2020/12/28 13:39:17;;;;;;;79.70;28.70;;;7.30;99.90;;;;;;5057011;28;20052;-58
2020/12/28 13:42:22;;;;;;;19.63;7.70;;;7.30;99.90;;;;;;5053916;28;20058;-59
2020/12/28 13:45:28;;;;;;;40.58;16.80;;;7.20;99.90;;;;;;5050779;28;20037;-59
2020/12/28 13:48:32;;;;;;;9.35;3.30;;;7.20;99.90;;;;;;5065385;28;20063;-60
2020/12/28 13:51:37;;;;;;;210.00;131.00;;;7.20;99.90;;;;;;5051617;28;20376;-58
2020/12/28 13:54:41;;;;;;;35.58;19.65;;;7.20;99.90;;;;;;5059560;28;20068;-60
2020/12/28 13:57:47;;;;;;;10.00;2.95;;;7.20;99.90;;;;;;5059100;28;20040;-60
2020/12/28 14:00:51;;;;;;;18.10;8.57;;;7.20;99.90;;;;;;5059233;28;20044;-60
2020/12/28 14:03:55;;;;;;;17.42;8.88;;;7.20;99.90;;;;;;5064635;28;20422;-56
2020/12/28 14:07:00;;;;;;;16.30;5.85;;;7.20;99.90;;;;;;5052226;28;20414;-56
2020/12/28 14:10:04;;;;;;;19.00;8.88;;;7.20;99.90;;;;;;5051045;28;20050;-58
2020/12/28 14:13:10;;;;;;;9.85;4.00;;;7.20;99.90;;;;;;5063753;28;20037;-57
2020/12/28 14:16:16;;;;;;;23.80;4.63;;;7.20;99.90;;;;;;5064467;28;20037;-60
2020/12/28 14:19:20;;;;;;;10.57;3.33;;;7.30;99.90;;;;;;5062072;28;20432;-58
2020/12/28 14:22:24;;;;;;;29.77;17.38;;;7.30;99.90;;;;;;5066714;28;20047;-57
2020/12/28 14:25:29;;;;;;;15.88;7.47;;;7.30;99.90;;;;;;5057185;28;20051;-59
2020/12/28 14:28:33;;;;;;;17.15;5.65;;;7.30;99.90;;;;;;5061398;28;20041;-60
2020/12/28 14:31:37;;;;;;;24.42;9.60;;;7.30;99.90;;;;;;5051058;28;20041;-59
2020/12/28 14:34:41;;;;;;;15.82;7.47;;;7.20;99.90;;;;;;5058074;28;20063;-58
2020/12/28 14:37:45;;;;;;;35.85;14.85;;;7.20;99.90;;;;;;5054484;28;20047;-57
2020/12/28 14:40:49;;;;;;;26.33;10.57;;;7.20;99.90;;;;;;5050739;28;20051;-57
2020/12/28 14:43:54;;;;;;;20.10;8.65;;;7.20;99.90;;;;;;5064530;28;20023;-60
2020/12/28 14:46:57;;;;;;;21.27;9.52;;;7.20;99.90;;;;;;5064385;28;20521;-57
2020/12/28 14:50:03;;;;;;;26.05;11.90;;;7.20;99.90;;;;;;5052885;28;20055;-57
2020/12/28 14:53:08;;;;;;;24.33;11.25;;;7.10;99.90;;;;;;5058601;28;20044;-56
2020/12/28 14:56:21;;;;;;;18.52;5.07;;;7.10;99.90;;;;;;5054253;28;20055;-55
2020/12/28 14:59:27;;;;;;;24.95;6.90;;;7.30;99.90;;;;;;5062496;28;20052;-61
2020/12/28 15:02:33;;;;;;;11.82;4.72;;;7.10;99.90;;;;;;5052754;28;20513;-59
2020/12/28 15:05:52;;;;;;;12.48;4.35;;;7.00;99.90;;;;;;5059889;28;20044;-60
2020/12/28 15:08:56;;;;;;;13.73;5.10;;;7.00;99.90;;;;;;5050665;28;20038;-58
2020/12/28 15:12:02;;;;;;;47.33;26.35;;;7.00;99.90;;;;;;5049161;28;20041;-60
2020/12/28 15:15:10;;;;;;;31.33;15.25;;;7.10;99.90;;;;;;5054578;28;20032;-58
2020/12/28 15:19:01;;;;;;;;;;;;;;;;;;;;;
2020/12/28 15:22:27;;;;;;;14.70;7.28;;;6.90;99.90;;;;;;5052747;28;20074;-59
2020/12/28 15:25:31;;;;;;;18.95;8.55;;;7.00;99.90;;;;;;5055358;28;20048;-60
2020/12/28 15:28:36;;;;;;;22.40;8.38;;;7.10;99.90;;;;;;5057112;28;20475;-61
2020/12/28 15:31:40;;;;;;;15.80;5.43;;;7.10;99.90;;;;;;5055578;28;20129;-59
2020/12/28 15:34:45;;;;;;;17.60;9.18;;;7.00;99.90;;;;;;5058393;28;20044;-57
2020/12/28 15:37:50;;;;;;;11.00;5.43;;;7.00;99.90;;;;;;5050289;28;20461;-58
2020/12/28 15:40:55;;;;;;;10.68;6.20;;;7.00;99.90;;;;;;5054433;28;20949;-56
2020/12/28 15:44:00;;;;;;;11.25;3.45;;;6.90;99.90;;;;;;5063775;28;20513;-58
2020/12/28 16:01:30;;;;;;;11.10;5.80;;;6.80;99.90;;;;;;5062779;28;20560;-55
2020/12/28 16:04:34;;;;;;;6.57;2.83;;;7.00;99.90;;;;;;5065590;28;20040;-57
2020/12/28 16:07:39;;;;;;;21.48;8.52;;;6.90;99.90;;;;;;5048521;28;20044;-59
2020/12/28 16:30:12;;;;;;;75.93;25.38;;;6.60;99.90;;;;;;5061643;28;20040;-54
2020/12/28 16:33:16;;;;;;;35.05;17.73;;;6.70;99.90;;;;;;5056267;28;20040;-55
2020/12/28 16:36:20;;;;;;;30.80;16.70;;;6.60;99.90;;;;;;5049625;28;20112;-58
2020/12/28 16:39:26;;;;;;;41.65;17.77;;;6.50;99.90;;;;;;5067687;28;20039;-57
2020/12/28 16:42:31;;;;;;;17.63;8.23;;;6.50;99.90;;;;;;5069859;28;20063;-59
2020/12/28 16:45:35;;;;;;;20.77;8.27;;;6.50;99.90;;;;;;5054094;28;20407;-59
2020/12/28 16:48:39;;;;;;;13.38;7.25;;;6.60;99.90;;;;;;5058718;28;20116;-58
2020/12/28 16:51:44;;;;;;;30.15;15.27;;;6.60;99.90;;;;;;5068171;28;20063;-59
2020/12/28 16:54:49;;;;;;;22.33;10.48;;;6.60;99.90;;;;;;5060306;28;20407;-55
2020/12/28 16:57:53;;;;;;;8.38;3.80;;;6.60;99.90;;;;;;5060054;28;20051;-56
2020/12/28 17:00:57;;;;;;;29.02;14.90;;;6.60;99.90;;;;;;5067167;28;20045;-60
2020/12/28 17:04:01;;;;;;;21.10;14.15;;;6.60;99.90;;;;;;5065970;28;20051;-55
2020/12/28 17:07:06;;;;;;;12.38;4.97;;;6.70;99.90;;;;;;5066307;28;20036;-57
2020/12/28 17:10:10;;;;;;;15.02;7.05;;;6.70;99.90;;;;;;5065746;28;20045;-58
2020/12/28 17:13:15;;;;;;;29.23;16.17;;;6.70;99.90;;;;;;5058243;28;20040;-60
2020/12/28 17:16:20;;;;;;;9.02;5.43;;;6.80;99.90;;;;;;5056251;28;20414;-59
2020/12/28 17:19:26;;;;;;;8.50;4.00;;;6.80;99.90;;;;;;5057833;28;20041;-60
2020/12/28 17:22:29;;;;;;;9.25;3.22;;;6.80;99.90;;;;;;5053356;28;20037;-59
2020/12/28 17:25:33;;;;;;;5.55;2.15;;;6.70;99.90;;;;;;5055951;28;20040;-58
2020/12/28 17:28:40;;;;;;;20.17;6.90;;;6.60;99.90;;;;;;5052537;28;20045;-56
2020/12/28 17:31:48;;;;;;;4.40;1.90;;;6.60;99.90;;;;;;5064721;28;20044;-60